Time;durP1;ratioP1;P1;durP2;ratioP2;P2;SDS_P1;SDS_P2;PMS_P1;PMS_P2;Temp;Humidity;BMP_temperature;BMP_pressure;BME280_temperature;BME280_humidity;BME280_pressure;Samples;Min_cycle;Max_cycle;Signal;HPM_P1;HPM_P2
2023/08/17 00:01:26;;;;;;;6.70;2.80;;;16.40;99.90;;;;;;5052920;28;20044;-65
2023/08/17 00:03:52;;;;;;;3.05;1.98;;;16.40;99.90;;;;;;5052457;28;20472;-65
2023/08/17 00:06:18;;;;;;;5.18;2.10;;;16.40;99.90;;;;;;5052843;28;20498;-65
2023/08/17 00:08:44;;;;;;;4.78;2.42;;;16.40;99.90;;;;;;5052190;28;20371;-65
2023/08/17 00:11:09;;;;;;;5.15;2.63;;;16.40;99.90;;;;;;5052782;28;20044;-65
2023/08/17 00:13:35;;;;;;;7.25;2.42;;;16.40;99.90;;;;;;5052238;28;20040;-65
2023/08/17 00:16:01;;;;;;;7.13;2.10;;;16.40;99.90;;;;;;5052718;28;20037;-65
2023/08/17 00:18:27;;;;;;;5.30;2.70;;;16.40;99.90;;;;;;5052510;28;20044;-65
2023/08/17 00:20:53;;;;;;;9.35;2.33;;;16.30;99.90;;;;;;5052380;28;20048;-65
2023/08/17 00:23:20;;;;;;;8.25;2.30;;;16.30;99.90;;;;;;5052062;28;20186;-65
2023/08/17 00:25:47;;;;;;;8.57;2.95;;;16.30;99.90;;;;;;5034520;28;20029;-65
2023/08/17 00:28:13;;;;;;;7.10;2.25;;;16.30;99.90;;;;;;5052505;28;20040;-65
2023/08/17 00:30:39;;;;;;;7.72;2.40;;;16.20;99.90;;;;;;5052321;28;20124;-65
2023/08/17 00:33:05;;;;;;;5.03;2.38;;;16.20;99.90;;;;;;5052295;28;20120;-65
2023/08/17 00:35:32;;;;;;;5.00;2.20;;;16.20;99.90;;;;;;5095318;22;20517;-66
2023/08/17 00:37:58;;;;;;;6.53;2.35;;;16.20;99.90;;;;;;5091529;28;20038;-66
2023/08/17 00:40:23;;;;;;;4.43;2.10;;;16.10;99.90;;;;;;5092246;28;20036;-66
2023/08/17 00:42:49;;;;;;;5.28;2.10;;;16.10;99.90;;;;;;5092376;28;20425;-66
2023/08/17 00:45:15;;;;;;;3.65;2.00;;;16.10;99.90;;;;;;5092150;28;20481;-67
2023/08/17 00:47:42;;;;;;;5.47;3.08;;;16.10;99.90;;;;;;5091938;28;20040;-66
2023/08/17 00:50:08;;;;;;;6.13;2.03;;;16.10;99.90;;;;;;5092246;28;20118;-67
2023/08/17 00:52:34;;;;;;;5.45;2.03;;;16.10;99.90;;;;;;5091664;28;20082;-66
2023/08/17 00:55:02;;;;;;;7.55;2.17;;;16.10;99.90;;;;;;5091567;28;20051;-67
2023/08/17 00:57:29;;;;;;;3.95;2.00;;;16.10;99.90;;;;;;5090892;28;20485;-66
2023/08/17 00:59:55;;;;;;;4.63;1.95;;;16.10;99.90;;;;;;5091983;28;20055;-67
2023/08/17 01:02:21;;;;;;;3.90;2.17;;;16.20;99.90;;;;;;5090784;28;20040;-66
2023/08/17 01:04:46;;;;;;;5.97;2.70;;;16.20;99.90;;;;;;5091100;28;20051;-66
2023/08/17 01:07:12;;;;;;;2.92;1.80;;;16.20;99.90;;;;;;5091927;28;20040;-67
2023/08/17 01:09:38;;;;;;;5.50;1.95;;;16.20;99.90;;;;;;5092219;28;20051;-66
2023/08/17 01:12:26;;;;;;;5.00;2.05;;;16.20;99.90;;;;;;5091112;28;20401;-66
2023/08/17 01:15:21;;;;;;;7.18;1.98;;;16.20;99.90;;;;;;5091403;28;20051;-66
2023/08/17 01:18:03;;;;;;;4.68;2.00;;;16.30;99.90;;;;;;5086018;28;20044;-67
2023/08/17 01:20:31;;;;;;;4.53;2.00;;;16.30;99.90;;;;;;5092145;28;20051;-66
2023/08/17 01:23:06;;;;;;;4.28;1.90;;;16.30;99.90;;;;;;5091673;28;20101;-66
2023/08/17 01:25:36;;;;;;;4.50;1.90;;;16.30;99.90;;;;;;5090353;28;20051;-66
2023/08/17 01:28:02;;;;;;;5.53;1.73;;;16.30;99.90;;;;;;5091683;28;20114;-66
2023/08/17 01:30:30;;;;;;;6.32;2.00;;;16.30;99.90;;;;;;5092011;28;20781;-66
2023/08/17 01:33:03;;;;;;;4.75;2.08;;;16.30;99.90;;;;;;5091909;28;20050;-66
2023/08/17 01:35:38;;;;;;;4.13;1.90;;;16.30;99.90;;;;;;5091484;28;20044;-67
2023/08/17 01:38:11;;;;;;;5.93;2.03;;;16.30;99.90;;;;;;5091366;28;20073;-66
2023/08/17 01:40:37;;;;;;;5.43;2.15;;;16.30;99.90;;;;;;5091300;28;20075;-66
2023/08/17 01:43:03;;;;;;;3.25;1.55;;;16.30;99.90;;;;;;5091793;28;20075;-67
2023/08/17 01:45:29;;;;;;;6.00;2.28;;;16.30;99.90;;;;;;5090996;28;20032;-66
2023/08/17 01:47:57;;;;;;;8.90;2.17;;;16.30;99.90;;;;;;5091793;28;20040;-66
2023/08/17 01:50:23;;;;;;;8.75;2.17;;;16.30;99.90;;;;;;5091249;28;20036;-66
2023/08/17 01:52:50;;;;;;;6.50;2.08;;;16.30;99.90;;;;;;5073430;28;20097;-66
2023/08/17 01:55:16;;;;;;;5.43;2.15;;;16.30;99.90;;;;;;5091355;28;20075;-66
2023/08/17 01:57:42;;;;;;;3.35;1.75;;;16.30;99.90;;;;;;5091872;28;20398;-66
2023/08/17 02:00:10;;;;;;;6.03;1.77;;;16.30;99.90;;;;;;5090276;28;20406;-66
2023/08/17 02:02:36;;;;;;;2.90;1.60;;;16.30;99.90;;;;;;5088979;28;20040;-67
2023/08/17 02:05:02;;;;;;;5.22;1.55;;;16.30;99.90;;;;;;5090426;28;20044;-66
2023/08/17 02:07:28;;;;;;;4.53;1.92;;;16.30;99.90;;;;;;5091423;28;20032;-67
2023/08/17 02:09:54;;;;;;;4.93;2.28;;;16.30;99.90;;;;;;5091353;28;20550;-66
2023/08/17 02:12:19;;;;;;;4.47;1.63;;;16.20;99.90;;;;;;5090993;28;20115;-66
2023/08/17 02:14:45;;;;;;;5.10;1.80;;;16.20;99.90;;;;;;5092465;28;20067;-66
2023/08/17 02:17:11;;;;;;;3.75;1.70;;;16.30;99.90;;;;;;5095315;28;20186;-66
2023/08/17 02:19:36;;;;;;;4.28;1.65;;;16.20;99.90;;;;;;5094452;28;20519;-66
2023/08/17 02:22:02;;;;;;;5.22;1.80;;;16.30;99.90;;;;;;5094641;28;20036;-67
2023/08/17 02:24:27;;;;;;;4.60;1.90;;;16.20;99.90;;;;;;5094850;28;20036;-67
2023/08/17 02:26:53;;;;;;;6.07;1.85;;;16.20;99.90;;;;;;5095183;28;20032;-67
2023/08/17 02:29:19;;;;;;;6.10;2.08;;;16.20;99.90;;;;;;5095020;28;20042;-67
2023/08/17 02:31:45;;;;;;;5.40;2.33;;;16.20;99.90;;;;;;5094871;28;20036;-66
2023/08/17 02:34:10;;;;;;;4.55;1.90;;;16.10;99.90;;;;;;5094327;28;20028;-66
2023/08/17 02:36:36;;;;;;;3.90;1.70;;;16.10;99.90;;;;;;5094615;28;20040;-67
2023/08/17 02:39:03;;;;;;;3.65;1.73;;;16.10;99.90;;;;;;5094954;28;20040;-66
2023/08/17 02:41:30;;;;;;;6.00;2.15;;;16.10;99.90;;;;;;5093579;28;20557;-67
2023/08/17 02:43:56;;;;;;;7.38;1.92;;;16.10;99.90;;;;;;5093933;28;20115;-66
2023/08/17 02:46:21;;;;;;;4.60;1.88;;;16.10;99.90;;;;;;5094374;28;20115;-67
2023/08/17 02:48:47;;;;;;;6.75;1.90;;;16.10;99.90;;;;;;5094577;28;20036;-67
2023/08/17 02:51:13;;;;;;;4.35;2.20;;;16.10;99.90;;;;;;5093770;28;20483;-67
2023/08/17 02:53:39;;;;;;;5.53;1.77;;;16.10;99.90;;;;;;5094337;28;20067;-66
2023/08/17 02:56:04;;;;;;;7.85;2.10;;;16.10;99.90;;;;;;5094208;28;20429;-67
2023/08/17 02:58:30;;;;;;;3.97;1.92;;;16.10;99.90;;;;;;5094570;28;20043;-66
2023/08/17 03:00:56;;;;;;;4.45;1.80;;;16.10;99.90;;;;;;5092649;28;20055;-66
2023/08/17 03:03:21;;;;;;;4.45;1.92;;;16.10;99.90;;;;;;5093977;28;20051;-67
2023/08/17 03:05:47;;;;;;;4.15;2.33;;;16.10;99.90;;;;;;5092483;28;20040;-67
2023/08/17 03:08:13;;;;;;;4.60;1.75;;;16.10;99.90;;;;;;5093726;28;20040;-66
2023/08/17 03:10:38;;;;;;;4.65;1.98;;;16.10;99.90;;;;;;5093920;28;20033;-66
2023/08/17 03:13:04;;;;;;;5.75;2.17;;;16.10;99.90;;;;;;5094024;28;20032;-67
2023/08/17 03:15:30;;;;;;;5.25;1.95;;;16.10;99.90;;;;;;5092655;28;20383;-66
2023/08/17 03:17:55;;;;;;;5.80;2.25;;;16.10;99.90;;;;;;5094043;28;20032;-67
2023/08/17 03:20:21;;;;;;;4.47;1.85;;;16.10;99.90;;;;;;5093797;28;20097;-67
2023/08/17 03:22:47;;;;;;;5.47;2.20;;;16.10;99.90;;;;;;5093924;28;20036;-67
2023/08/17 03:25:12;;;;;;;3.92;2.10;;;16.10;99.90;;;;;;5092170;28;20098;-66
2023/08/17 03:27:38;;;;;;;4.88;2.10;;;16.10;99.90;;;;;;5093386;28;20036;-66
2023/08/17 03:30:06;;;;;;;4.53;1.85;;;16.10;99.90;;;;;;5093712;28;20044;-66
2023/08/17 03:32:32;;;;;;;8.18;2.42;;;16.10;99.90;;;;;;5092555;28;20040;-66
2023/08/17 03:34:58;;;;;;;4.75;2.08;;;16.20;99.90;;;;;;5092565;28;20525;-66
2023/08/17 03:37:23;;;;;;;3.72;2.03;;;16.10;99.90;;;;;;5093598;28;20044;-66
2023/08/17 03:39:49;;;;;;;8.10;2.45;;;16.20;99.90;;;;;;5093647;28;20039;-66
2023/08/17 03:42:14;;;;;;;6.80;2.50;;;16.20;99.90;;;;;;5092990;28;20044;-66
2023/08/17 03:44:40;;;;;;;5.32;2.60;;;16.20;99.90;;;;;;5093242;28;20028;-66
2023/08/17 03:47:06;;;;;;;5.80;2.45;;;16.20;99.90;;;;;;5091865;28;20117;-66
2023/08/17 03:49:31;;;;;;;5.40;2.42;;;16.20;99.90;;;;;;5093799;28;20036;-66
2023/08/17 03:51:57;;;;;;;10.10;2.75;;;16.20;99.90;;;;;;5092680;28;20028;-67
2023/08/17 03:54:23;;;;;;;4.68;2.17;;;16.10;99.90;;;;;;5093094;28;20451;-67
2023/08/17 03:56:48;;;;;;;6.88;2.33;;;16.20;99.90;;;;;;5093406;28;20047;-67
2023/08/17 03:59:14;;;;;;;7.72;2.75;;;16.20;99.90;;;;;;5092453;28;20032;-67
2023/08/17 04:01:40;;;;;;;7.50;3.00;;;16.20;99.90;;;;;;5090123;28;20062;-67
2023/08/17 04:04:05;;;;;;;7.05;2.70;;;16.20;99.90;;;;;;5091955;28;20040;-66
2023/08/17 04:06:31;;;;;;;9.25;2.70;;;16.20;99.90;;;;;;5076964;28;20037;-66
2023/08/17 04:08:57;;;;;;;10.05;2.80;;;16.20;99.90;;;;;;5072915;28;20600;-67
2023/08/17 04:11:22;;;;;;;9.20;3.08;;;16.20;99.90;;;;;;5072782;28;20037;-66
2023/08/17 04:13:48;;;;;;;8.00;2.80;;;16.20;99.90;;;;;;5086896;28;20068;-66
2023/08/17 04:16:14;;;;;;;7.28;2.90;;;16.20;99.90;;;;;;5092096;28;20044;-67
2023/08/17 04:18:39;;;;;;;6.30;2.70;;;16.20;99.90;;;;;;5092766;28;20568;-67
2023/08/17 04:21:05;;;;;;;6.85;2.75;;;16.20;99.90;;;;;;5091682;28;20092;-67
2023/08/17 04:23:30;;;;;;;6.47;3.03;;;16.20;99.90;;;;;;5092067;28;20509;-66
2023/08/17 04:25:56;;;;;;;9.05;3.15;;;16.20;99.90;;;;;;5092632;28;20048;-67
2023/08/17 04:28:21;;;;;;;6.30;2.97;;;16.20;99.90;;;;;;5092759;28;20045;-67
2023/08/17 04:30:47;;;;;;;4.95;2.65;;;16.20;99.90;;;;;;5092662;28;20040;-66
2023/08/17 04:33:13;;;;;;;8.93;3.05;;;16.20;99.90;;;;;;5092271;28;20407;-66
2023/08/17 04:35:39;;;;;;;6.28;2.53;;;16.20;99.90;;;;;;5092046;28;20050;-67
2023/08/17 04:38:04;;;;;;;8.00;2.60;;;16.20;99.90;;;;;;5092591;28;20057;-66
2023/08/17 04:40:31;;;;;;;7.10;2.50;;;16.20;99.90;;;;;;5092195;28;20111;-67
2023/08/17 04:42:56;;;;;;;3.85;2.25;;;16.20;99.90;;;;;;5091966;28;20044;-66
2023/08/17 04:45:23;;;;;;;7.00;2.50;;;16.20;99.90;;;;;;5092124;28;20116;-66
2023/08/17 04:47:49;;;;;;;6.28;2.80;;;16.20;99.90;;;;;;5091899;28;20040;-66
2023/08/17 04:50:16;;;;;;;7.63;2.97;;;16.20;99.90;;;;;;5092198;28;20480;-66
2023/08/17 04:52:45;;;;;;;7.43;2.38;;;16.20;99.90;;;;;;5090459;28;20073;-67
2023/08/17 04:55:12;;;;;;;5.10;2.42;;;16.20;99.90;;;;;;5092108;28;20128;-67
2023/08/17 04:57:37;;;;;;;5.75;2.33;;;16.30;99.90;;;;;;5092244;28;20074;-67
2023/08/17 05:00:04;;;;;;;5.30;2.42;;;16.30;99.90;;;;;;5092134;28;20044;-66
2023/08/17 05:02:30;;;;;;;6.47;2.47;;;16.30;99.90;;;;;;5090502;28;20040;-67
2023/08/17 05:04:56;;;;;;;4.50;2.33;;;16.30;99.90;;;;;;5090680;28;20094;-66
2023/08/17 05:07:21;;;;;;;7.47;2.45;;;16.30;99.90;;;;;;5092147;28;20044;-67
2023/08/17 05:09:47;;;;;;;6.72;2.17;;;16.30;99.90;;;;;;5092500;28;20032;-66
2023/08/17 05:12:13;;;;;;;7.45;2.50;;;16.30;99.90;;;;;;5091811;28;20176;-66
2023/08/17 05:14:39;;;;;;;7.72;2.28;;;16.30;99.90;;;;;;5090313;28;20545;-67
2023/08/17 05:17:05;;;;;;;7.40;2.53;;;16.30;99.90;;;;;;5091467;28;20111;-67
2023/08/17 05:19:30;;;;;;;4.53;2.42;;;16.30;99.90;;;;;;5092185;28;20028;-66
2023/08/17 05:21:56;;;;;;;4.85;2.17;;;16.30;99.90;;;;;;5091458;28;20047;-66
2023/08/17 05:24:21;;;;;;;4.15;2.30;;;16.30;99.90;;;;;;5091636;28;20036;-66
2023/08/17 05:26:47;;;;;;;5.03;2.30;;;16.30;99.90;;;;;;5091513;28;20550;-67
2023/08/17 05:29:13;;;;;;;8.00;2.30;;;16.30;99.90;;;;;;5091863;28;20032;-66
2023/08/17 05:31:38;;;;;;;4.03;2.00;;;16.30;99.90;;;;;;5091707;28;20037;-67
2023/08/17 05:34:04;;;;;;;6.20;2.20;;;16.30;99.90;;;;;;5091544;28;20402;-66
2023/08/17 05:36:29;;;;;;;9.65;3.00;;;16.30;99.90;;;;;;5091965;28;20511;-66
2023/08/17 05:38:55;;;;;;;4.28;2.35;;;16.40;99.90;;;;;;5091855;28;20043;-66
2023/08/17 05:41:20;;;;;;;5.40;2.05;;;16.40;99.90;;;;;;5091870;28;20036;-67
2023/08/17 05:43:48;;;;;;;4.45;1.95;;;16.40;99.90;;;;;;5091227;28;20089;-66
2023/08/17 05:46:14;;;;;;;4.72;2.05;;;16.40;99.90;;;;;;5091552;28;20047;-66
2023/08/17 05:48:41;;;;;;;7.10;1.85;;;16.50;99.90;;;;;;5091518;28;20381;-67
2023/08/17 05:51:07;;;;;;;5.03;2.08;;;16.40;99.90;;;;;;5095808;28;20036;-66
2023/08/17 05:53:32;;;;;;;5.93;2.42;;;16.50;99.90;;;;;;5095176;28;20040;-67
2023/08/17 05:55:58;;;;;;;5.80;2.03;;;16.50;99.90;;;;;;5095201;28;20036;-66
2023/08/17 05:58:24;;;;;;;7.78;2.30;;;16.50;99.90;;;;;;5095692;28;20120;-67
2023/08/17 06:00:49;;;;;;;4.50;1.90;;;16.50;99.90;;;;;;5095335;28;20069;-67
2023/08/17 06:03:15;;;;;;;3.25;1.90;;;16.60;99.90;;;;;;5095431;28;20126;-66
2023/08/17 06:05:41;;;;;;;5.90;2.10;;;16.60;99.90;;;;;;5095076;28;20114;-67
2023/08/17 06:08:06;;;;;;;7.25;2.10;;;16.60;99.90;;;;;;5095517;28;20036;-67
2023/08/17 06:10:32;;;;;;;6.68;2.00;;;16.60;99.90;;;;;;5095344;28;20036;-67
2023/08/17 06:12:58;;;;;;;5.88;1.80;;;16.60;99.90;;;;;;5095064;28;20070;-67
2023/08/17 06:15:24;;;;;;;6.93;2.30;;;16.60;99.90;;;;;;5095303;28;20097;-66
2023/08/17 06:17:50;;;;;;;5.88;1.90;;;16.60;99.90;;;;;;5095355;28;20046;-66
2023/08/17 06:20:16;;;;;;;6.60;2.17;;;16.60;99.90;;;;;;5094815;28;20127;-66
2023/08/17 06:22:42;;;;;;;7.07;2.30;;;16.60;99.90;;;;;;5094687;28;20335;-67
2023/08/17 06:25:08;;;;;;;6.93;2.40;;;16.70;99.90;;;;;;5094748;28;20067;-66
2023/08/17 06:27:37;;;;;;;4.63;1.90;;;16.70;99.90;;;;;;5093445;28;20028;-67
2023/08/17 06:30:03;;;;;;;4.82;2.28;;;16.70;99.90;;;;;;5094814;28;20497;-66
2023/08/17 06:32:32;;;;;;;4.50;1.77;;;16.70;99.90;;;;;;5094433;28;20123;-67
2023/08/17 06:34:58;;;;;;;6.68;2.20;;;16.80;99.90;;;;;;5093221;22;20072;-65
2023/08/17 06:37:23;;;;;;;9.35;2.30;;;16.80;99.90;;;;;;5053625;28;20071;-65
2023/08/17 06:39:49;;;;;;;4.85;1.92;;;16.80;99.90;;;;;;5054421;28;20113;-65
2023/08/17 06:42:15;;;;;;;6.95;2.22;;;16.80;99.90;;;;;;5054326;28;20052;-64
2023/08/17 06:44:40;;;;;;;5.78;2.03;;;16.80;99.90;;;;;;5053388;28;20046;-65
2023/08/17 06:47:06;;;;;;;3.70;1.80;;;16.80;99.90;;;;;;5054438;28;20067;-65
2023/08/17 06:49:32;;;;;;;3.92;2.10;;;16.80;99.90;;;;;;5054160;28;20108;-65
2023/08/17 06:51:58;;;;;;;7.00;2.08;;;16.80;99.90;;;;;;5052909;28;20037;-65
2023/08/17 06:54:23;;;;;;;5.25;1.90;;;16.80;99.90;;;;;;5053907;28;20083;-64
2023/08/17 06:56:49;;;;;;;5.18;1.75;;;16.80;99.90;;;;;;5054223;28;20444;-65
2023/08/17 06:59:15;;;;;;;2.88;1.85;;;16.80;99.90;;;;;;5054020;28;20037;-65
2023/08/17 07:01:40;;;;;;;6.18;2.08;;;16.80;99.90;;;;;;5052914;28;20086;-64
2023/08/17 07:04:06;;;;;;;4.47;1.90;;;16.80;99.90;;;;;;5053330;28;20502;-64
2023/08/17 07:06:31;;;;;;;6.85;1.75;;;16.80;99.90;;;;;;5054016;28;20037;-64
2023/08/17 07:08:57;;;;;;;4.10;1.70;;;16.90;99.90;;;;;;5053993;28;20039;-65
2023/08/17 07:11:23;;;;;;;5.32;1.92;;;16.90;99.90;;;;;;5053458;28;20037;-64
2023/08/17 07:13:48;;;;;;;3.38;1.65;;;16.90;99.90;;;;;;5040442;28;20045;-65
2023/08/17 07:16:14;;;;;;;7.60;2.50;;;16.90;99.90;;;;;;5053957;28;20499;-65
2023/08/17 07:18:40;;;;;;;6.13;2.00;;;16.90;99.90;;;;;;5053392;28;20036;-65
2023/08/17 07:21:05;;;;;;;2.83;1.50;;;16.90;99.90;;;;;;5036089;28;20668;-65
2023/08/17 07:23:31;;;;;;;2.95;1.60;;;16.90;99.90;;;;;;5052854;28;20450;-65
2023/08/17 07:25:57;;;;;;;4.57;1.60;;;16.90;99.90;;;;;;5053583;28;20041;-65
2023/08/17 07:28:22;;;;;;;4.55;2.05;;;17.00;99.90;;;;;;5053411;28;20120;-65
2023/08/17 07:30:48;;;;;;;5.05;1.98;;;17.00;99.90;;;;;;5053778;28;20080;-65
2023/08/17 07:33:14;;;;;;;4.55;2.20;;;17.00;99.90;;;;;;5035367;28;20127;-65
2023/08/17 07:35:39;;;;;;;6.30;1.88;;;17.00;99.90;;;;;;5035364;28;20128;-66
2023/08/17 07:38:05;;;;;;;4.47;1.92;;;17.10;99.90;;;;;;5035606;28;20037;-65
2023/08/17 07:40:31;;;;;;;8.18;1.98;;;17.10;99.90;;;;;;5053358;28;20117;-65
2023/08/17 07:42:57;;;;;;;3.35;1.73;;;17.10;99.90;;;;;;5052503;28;20033;-65
2023/08/17 07:45:22;;;;;;;4.30;1.80;;;17.10;99.90;;;;;;5034958;28;20037;-65
2023/08/17 07:47:48;;;;;;;4.85;1.63;;;17.10;99.90;;;;;;5035291;28;20072;-65
2023/08/17 07:50:13;;;;;;;4.40;1.73;;;17.10;99.90;;;;;;5053238;28;20075;-65
2023/08/17 07:52:39;;;;;;;5.43;1.80;;;17.10;99.90;;;;;;5052739;28;20040;-65
2023/08/17 07:55:05;;;;;;;5.88;2.22;;;17.10;99.90;;;;;;5052134;28;20044;-65
2023/08/17 07:57:30;;;;;;;3.30;1.70;;;17.20;99.90;;;;;;5052858;28;20040;-65
2023/08/17 07:59:56;;;;;;;3.88;1.92;;;17.20;99.90;;;;;;5052726;28;20075;-65
2023/08/17 08:02:22;;;;;;;4.82;1.80;;;17.30;99.90;;;;;;5052703;28;20045;-65
2023/08/17 08:04:47;;;;;;;4.05;1.77;;;17.30;99.90;;;;;;5052090;28;20037;-65
2023/08/17 08:07:13;;;;;;;4.80;1.80;;;17.30;99.90;;;;;;5052959;28;20033;-66
2023/08/17 08:09:38;;;;;;;5.05;1.60;;;17.30;99.90;;;;;;5052027;28;20036;-66
2023/08/17 08:12:05;;;;;;;4.63;1.98;;;17.30;99.90;;;;;;5052116;28;20048;-65
2023/08/17 08:14:30;;;;;;;5.70;1.85;;;17.30;99.90;;;;;;5051971;28;20045;-65
2023/08/17 08:16:56;;;;;;;5.75;1.70;;;17.40;99.90;;;;;;5034312;28;20037;-65
2023/08/17 08:19:22;;;;;;;3.22;1.52;;;17.40;99.90;;;;;;5052381;28;20044;-65
2023/08/17 08:21:47;;;;;;;2.38;1.60;;;17.40;99.90;;;;;;5052687;28;20047;-65
2023/08/17 08:24:13;;;;;;;4.93;1.80;;;17.50;99.90;;;;;;5051579;28;20481;-65
2023/08/17 08:26:38;;;;;;;5.85;1.90;;;17.50;99.90;;;;;;5051445;28;20407;-65
2023/08/17 08:29:04;;;;;;;6.95;1.70;;;17.60;99.90;;;;;;5052091;28;20025;-65
2023/08/17 08:31:29;;;;;;;4.28;1.60;;;17.60;99.90;;;;;;5052404;28;20719;-65
2023/08/17 08:33:55;;;;;;;4.97;1.67;;;17.60;99.90;;;;;;5051387;28;20044;-65
2023/08/17 08:36:21;;;;;;;4.85;2.15;;;17.60;99.90;;;;;;5052001;28;20040;-66
2023/08/17 08:38:46;;;;;;;6.40;2.05;;;17.50;99.90;;;;;;5052336;28;20037;-65
2023/08/17 08:41:12;;;;;;;9.45;2.22;;;17.50;99.90;;;;;;5051902;28;20044;-65
2023/08/17 08:43:38;;;;;;;5.65;1.95;;;17.50;99.90;;;;;;5051808;28;20515;-66
2023/08/17 08:46:05;;;;;;;3.00;1.58;;;17.60;99.90;;;;;;5051828;28;20037;-65
2023/08/17 08:48:32;;;;;;;2.78;1.60;;;17.50;99.90;;;;;;5034441;28;20048;-66
2023/08/17 08:51:00;;;;;;;6.38;2.05;;;17.60;99.90;;;;;;5033579;28;20091;-65
2023/08/17 08:53:38;;;;;;;5.70;1.92;;;17.60;99.90;;;;;;5034009;28;20491;-66
2023/08/17 08:56:06;;;;;;;4.85;1.70;;;17.60;99.90;;;;;;5034029;28;20064;-66
2023/08/17 08:58:33;;;;;;;3.35;1.90;;;17.60;99.90;;;;;;5051522;28;20076;-65
2023/08/17 09:01:00;;;;;;;4.70;1.80;;;17.60;99.90;;;;;;5051986;28;20048;-65
2023/08/17 09:03:26;;;;;;;3.60;1.83;;;17.60;99.90;;;;;;5051811;28;20068;-66
2023/08/17 09:05:53;;;;;;;3.95;1.90;;;17.60;99.90;;;;;;5051775;28;20083;-66
2023/08/17 09:08:25;;;;;;;6.55;1.83;;;17.60;99.90;;;;;;5051543;28;20403;-66
2023/08/17 09:10:50;;;;;;;4.68;2.20;;;17.70;99.90;;;;;;5051568;28;20037;-65
2023/08/17 09:13:16;;;;;;;3.08;1.65;;;17.70;99.90;;;;;;5051689;28;20403;-66
2023/08/17 09:15:42;;;;;;;6.30;2.00;;;17.80;99.90;;;;;;5050516;28;20041;-66
2023/08/17 09:18:07;;;;;;;4.03;1.75;;;17.80;99.90;;;;;;5033843;28;20554;-65
2023/08/17 09:20:39;;;;;;;2.97;1.70;;;17.90;99.90;;;;;;5051570;28;20037;-66
2023/08/17 09:23:09;;;;;;;3.90;1.90;;;17.90;99.90;;;;;;5033535;28;20045;-66
2023/08/17 09:25:34;;;;;;;5.20;1.80;;;17.90;99.90;;;;;;5054457;28;20093;-66
2023/08/17 09:28:08;;;;;;;6.82;1.92;;;18.00;99.90;;;;;;5037890;28;20520;-65
2023/08/17 09:30:48;;;;;;;2.92;1.83;;;18.10;99.90;;;;;;5038171;28;20033;-66
2023/08/17 09:33:14;;;;;;;3.22;1.70;;;18.10;99.90;;;;;;5055462;28;20402;-66
2023/08/17 09:35:42;;;;;;;4.13;2.00;;;18.10;99.90;;;;;;5037225;28;20053;-66
2023/08/17 09:38:07;;;;;;;5.35;2.00;;;18.10;99.90;;;;;;5055301;28;20541;-66
2023/08/17 09:40:33;;;;;;;3.65;1.80;;;18.10;99.90;;;;;;5055526;28;20041;-66
2023/08/17 09:42:59;;;;;;;5.72;1.90;;;18.10;99.90;;;;;;5037919;28;20068;-66
2023/08/17 09:45:27;;;;;;;5.53;1.90;;;18.10;99.90;;;;;;5055239;28;20498;-66
2023/08/17 09:47:53;;;;;;;3.85;2.38;;;18.10;99.90;;;;;;5055640;28;20044;-66
2023/08/17 09:50:22;;;;;;;4.55;2.00;;;18.10;99.90;;;;;;5055392;28;20029;-66
2023/08/17 09:52:52;;;;;;;10.13;2.47;;;18.10;99.90;;;;;;5055446;28;20045;-66
2023/08/17 09:55:18;;;;;;;4.88;1.90;;;18.20;99.90;;;;;;5054771;28;20056;-66
2023/08/17 09:57:45;;;;;;;4.30;2.30;;;18.10;99.90;;;;;;5055095;28;20036;-66
2023/08/17 10:00:11;;;;;;;5.05;2.30;;;18.10;99.90;;;;;;5054948;28;20041;-66
2023/08/17 10:02:37;;;;;;;4.53;2.22;;;18.10;99.90;;;;;;5037362;28;20033;-66
2023/08/17 10:05:05;;;;;;;4.20;2.35;;;18.10;99.90;;;;;;5054331;28;20044;-66
2023/08/17 10:07:33;;;;;;;4.15;2.45;;;18.10;99.90;;;;;;5055157;28;20037;-65
2023/08/17 10:10:04;;;;;;;3.92;2.28;;;18.20;99.90;;;;;;5054703;28;20033;-65
2023/08/17 10:12:36;;;;;;;3.78;2.22;;;18.20;99.90;;;;;;5054525;28;20041;-66
2023/08/17 10:15:09;;;;;;;4.75;2.40;;;18.20;99.90;;;;;;5054495;28;20037;-65
2023/08/17 10:17:59;;;;;;;6.22;2.25;;;18.30;99.90;;;;;;5037112;28;20045;-66
2023/08/17 10:20:29;;;;;;;5.32;2.60;;;18.30;99.90;;;;;;5054638;28;20502;-66
2023/08/17 10:23:18;;;;;;;5.75;2.78;;;18.40;99.90;;;;;;5036984;28;20064;-66
2023/08/17 10:25:44;;;;;;;5.82;2.47;;;18.50;99.90;;;;;;5054164;28;20037;-66
2023/08/17 10:28:10;;;;;;;7.35;2.78;;;18.60;99.90;;;;;;5036919;28;20036;-66
2023/08/17 10:30:37;;;;;;;3.92;2.40;;;18.60;99.90;;;;;;5054122;28;20037;-66
2023/08/17 10:33:05;;;;;;;3.83;2.20;;;18.70;99.90;;;;;;5054828;28;20040;-66
2023/08/17 10:35:32;;;;;;;4.72;2.50;;;18.70;99.90;;;;;;5035775;28;20048;-65
2023/08/17 10:37:59;;;;;;;7.07;2.40;;;18.70;99.90;;;;;;5036652;28;20036;-65
2023/08/17 10:40:28;;;;;;;6.00;2.50;;;18.70;99.90;;;;;;5035928;28;20175;-66
2023/08/17 10:42:57;;;;;;;5.38;2.47;;;18.80;99.90;;;;;;5054318;28;20068;-66
2023/08/17 10:45:31;;;;;;;5.85;2.67;;;18.80;99.90;;;;;;5053762;28;20029;-66
2023/08/17 10:48:09;;;;;;;7.50;2.75;;;18.80;99.90;;;;;;5054567;28;20041;-65
2023/08/17 10:50:36;;;;;;;4.53;2.90;;;18.80;99.90;;;;;;5054359;28;20494;-66
2023/08/17 10:53:12;;;;;;;5.85;2.55;;;18.90;99.90;;;;;;5036354;28;20056;-66
2023/08/17 10:55:40;;;;;;;4.38;2.90;;;19.00;99.90;;;;;;5053679;28;20059;-66
2023/08/17 10:58:08;;;;;;;3.13;2.80;;;19.00;99.90;;;;;;5054394;28;20442;-66
2023/08/17 11:00:38;;;;;;;4.47;2.30;;;19.10;99.90;;;;;;5036167;28;20560;-65
2023/08/17 11:03:09;;;;;;;3.85;2.88;;;19.10;99.90;;;;;;5054058;28;20066;-66
2023/08/17 11:05:42;;;;;;;5.45;3.35;;;19.10;99.90;;;;;;5053085;28;20112;-66
2023/08/17 11:08:10;;;;;;;4.38;2.70;;;19.20;99.90;;;;;;5053935;28;20558;-66
2023/08/17 11:10:37;;;;;;;7.75;2.88;;;19.30;99.90;;;;;;5053772;28;20038;-66
2023/08/17 11:13:03;;;;;;;4.70;3.05;;;19.40;99.90;;;;;;5035582;28;20051;-65
2023/08/17 11:15:38;;;;;;;6.30;3.15;;;19.50;99.90;;;;;;5035602;28;20041;-66
2023/08/17 11:18:06;;;;;;;6.07;3.70;;;19.60;99.90;;;;;;5053545;28;20502;-66
2023/08/17 11:20:31;;;;;;;4.65;3.13;;;19.50;99.90;;;;;;5053210;28;20044;-66
2023/08/17 11:22:59;;;;;;;4.13;3.65;;;19.50;99.90;;;;;;5053243;28;20053;-66
2023/08/17 11:25:26;;;;;;;5.53;3.70;;;19.50;99.90;;;;;;5035342;28;20498;-66
2023/08/17 11:27:53;;;;;;;4.45;3.25;;;19.50;99.90;;;;;;5053565;28;20047;-66
2023/08/17 11:30:20;;;;;;;8.02;3.58;;;19.40;99.90;;;;;;5053119;28;20040;-66
2023/08/17 11:32:46;;;;;;;6.05;3.67;;;19.40;99.90;;;;;;5035169;28;20048;-66
2023/08/17 11:35:11;;;;;;;6.35;3.90;;;19.40;99.90;;;;;;5034964;28;20041;-66
2023/08/17 11:37:37;;;;;;;5.07;3.60;;;19.50;99.90;;;;;;5052936;28;20076;-66
2023/08/17 11:40:04;;;;;;;8.80;3.85;;;19.50;99.90;;;;;;5053569;28;20439;-66
2023/08/17 11:42:30;;;;;;;4.78;3.58;;;19.50;99.90;;;;;;5053023;28;20048;-66
2023/08/17 11:44:56;;;;;;;4.28;3.33;;;19.50;99.90;;;;;;5052331;28;20037;-66
2023/08/17 11:47:21;;;;;;;5.43;3.95;;;19.60;99.90;;;;;;5052173;28;20155;-66
2023/08/17 11:49:49;;;;;;;5.88;4.00;;;19.60;99.90;;;;;;5035338;28;20641;-66
2023/08/17 11:52:15;;;;;;;6.78;3.90;;;19.50;99.90;;;;;;5053384;28;20433;-66
2023/08/17 11:54:41;;;;;;;5.65;4.07;;;19.60;99.90;;;;;;5052461;28;20052;-66
2023/08/17 11:57:07;;;;;;;4.88;3.92;;;19.60;99.90;;;;;;5034782;28;20177;-66
2023/08/17 11:59:33;;;;;;;6.30;4.28;;;19.60;99.90;;;;;;5053068;28;20111;-66
2023/08/17 12:02:00;;;;;;;5.55;3.90;;;19.60;99.90;;;;;;5052524;28;20051;-66
2023/08/17 12:04:26;;;;;;;7.07;4.25;;;19.60;99.90;;;;;;5052352;28;20505;-66
2023/08/17 12:06:52;;;;;;;4.45;4.03;;;19.60;99.90;;;;;;5052609;28;20036;-66
2023/08/17 12:09:18;;;;;;;4.95;3.70;;;19.60;99.90;;;;;;5052983;28;20044;-66
2023/08/17 12:11:47;;;;;;;5.47;3.85;;;19.70;99.90;;;;;;5052021;28;20037;-66
2023/08/17 12:14:13;;;;;;;6.22;3.90;;;19.70;99.90;;;;;;5052368;28;20052;-66
2023/08/17 12:16:48;;;;;;;6.15;4.50;;;19.60;99.90;;;;;;5052535;28;20037;-66
2023/08/17 12:19:14;;;;;;;4.93;4.40;;;19.60;99.90;;;;;;5052063;28;20102;-66
2023/08/17 12:21:42;;;;;;;7.32;3.80;;;19.60;99.90;;;;;;5034254;28;20049;-66
2023/08/17 12:24:09;;;;;;;7.25;3.97;;;19.60;99.90;;;;;;5034322;28;20044;-66
2023/08/17 12:26:35;;;;;;;5.93;4.47;;;19.60;99.90;;;;;;5034145;28;20033;-66
2023/08/17 12:29:04;;;;;;;6.05;3.72;;;19.70;99.90;;;;;;5052465;28;20041;-66
2023/08/17 12:31:30;;;;;;;7.45;4.05;;;19.70;99.90;;;;;;5052007;28;20037;-66
2023/08/17 12:33:55;;;;;;;5.35;3.83;;;19.80;99.90;;;;;;5051916;28;20041;-66
2023/08/17 12:36:21;;;;;;;4.70;4.03;;;19.80;99.90;;;;;;5095111;22;20134;-67
2023/08/17 12:38:47;;;;;;;6.55;4.50;;;19.90;99.90;;;;;;5091797;28;20036;-67
2023/08/17 12:41:13;;;;;;;7.15;3.90;;;19.90;99.90;;;;;;5084186;28;20074;-67
2023/08/17 12:43:39;;;;;;;7.32;4.00;;;19.90;99.90;;;;;;5092294;28;20470;-67